Time;durP1;ratioP1;P1;durP2;ratioP2;P2;SDS_P1;SDS_P2;PMS_P1;PMS_P2;Temp;Humidity;BMP_temperature;BMP_pressure;BME280_temperature;BME280_humidity;BME280_pressure;Samples;Min_cycle;Max_cycle;Signal;HPM_P1;HPM_P2
2022/02/24 00:00:56;;;;;;;9.40;5.45;;;2.80;72.70;;;;;;5031126;28;20191;-68
2022/02/24 00:03:24;;;;;;;8.77;4.95;;;2.80;72.30;;;;;;5027640;28;20282;-69
2022/02/24 00:05:53;;;;;;;9.10;5.70;;;2.80;71.40;;;;;;5026148;28;20187;-67
2022/02/24 00:08:20;;;;;;;8.20;6.05;;;2.80;71.50;;;;;;5029889;28;20199;-67
2022/02/24 00:10:47;;;;;;;10.45;6.03;;;2.80;72.00;;;;;;5030853;28;20191;-66
2022/02/24 00:13:15;;;;;;;8.90;5.78;;;2.70;72.40;;;;;;5028442;28;20218;-67
2022/02/24 00:15:42;;;;;;;8.98;5.25;;;2.70;72.30;;;;;;5030443;28;20237;-67
2022/02/24 00:18:09;;;;;;;10.23;5.82;;;2.70;72.60;;;;;;5030682;28;20284;-67
2022/02/24 00:20:36;;;;;;;10.52;5.07;;;2.70;72.60;;;;;;5029158;28;20234;-74
2022/02/24 00:23:05;;;;;;;8.30;5.55;;;2.70;72.30;;;;;;5030053;28;20195;-67
2022/02/24 00:25:32;;;;;;;9.93;5.63;;;2.60;71.20;;;;;;5030274;28;20265;-67
2022/02/24 00:27:59;;;;;;;9.98;5.55;;;2.50;72.40;;;;;;5029309;28;20273;-67
2022/02/24 00:30:26;;;;;;;9.45;5.72;;;2.50;73.00;;;;;;5030745;28;20390;-67
2022/02/24 00:32:53;;;;;;;9.30;6.10;;;2.60;73.20;;;;;;5031674;28;20211;-67
2022/02/24 00:35:20;;;;;;;6.97;6.13;;;2.60;72.40;;;;;;5026372;28;20655;-67
2022/02/24 00:37:47;;;;;;;9.80;5.15;;;2.50;71.90;;;;;;5011963;28;20231;-67
2022/02/24 00:40:15;;;;;;;6.80;4.30;;;2.40;72.00;;;;;;5011621;28;20242;-67
2022/02/24 00:42:42;;;;;;;7.50;5.13;;;2.40;72.60;;;;;;5011989;28;20258;-67
2022/02/24 00:45:09;;;;;;;7.50;4.78;;;2.30;73.00;;;;;;5011482;28;20215;-67
2022/02/24 00:47:37;;;;;;;6.30;5.05;;;2.40;73.10;;;;;;5011851;28;20195;-67
2022/02/24 00:50:04;;;;;;;5.57;3.92;;;2.40;73.60;;;;;;5011948;28;20250;-67
2022/02/24 00:52:31;;;;;;;7.03;4.22;;;2.40;73.30;;;;;;5011829;28;20314;-67
2022/02/24 00:54:58;;;;;;;5.00;2.97;;;2.40;73.40;;;;;;5011836;28;20255;-67
2022/02/24 00:57:26;;;;;;;5.72;3.40;;;2.50;76.00;;;;;;5011661;28;20223;-67
2022/02/24 00:59:53;;;;;;;5.20;3.78;;;2.50;75.50;;;;;;5011618;28;20196;-67
2022/02/24 01:02:20;;;;;;;6.03;3.60;;;2.50;75.50;;;;;;5011641;28;20318;-67
2022/02/24 01:04:47;;;;;;;4.47;3.10;;;2.50;75.10;;;;;;5011294;28;20242;-67
2022/02/24 01:07:14;;;;;;;5.72;3.35;;;2.50;74.60;;;;;;5011449;28;20202;-67
2022/02/24 01:09:41;;;;;;;6.22;3.95;;;2.40;74.60;;;;;;5011573;28;20591;-66
2022/02/24 01:12:08;;;;;;;7.35;4.15;;;2.40;72.80;;;;;;5011059;28;20227;-66
2022/02/24 01:14:37;;;;;;;6.55;4.18;;;2.30;71.90;;;;;;5010985;28;20296;-67
2022/02/24 01:17:04;;;;;;;4.20;3.05;;;2.20;71.40;;;;;;5011267;28;20285;-67
2022/02/24 01:19:31;;;;;;;6.78;3.28;;;2.20;71.90;;;;;;5011030;28;20678;-67
2022/02/24 01:21:58;;;;;;;3.92;3.17;;;2.20;72.80;;;;;;5011259;28;20196;-68
2022/02/24 01:24:25;;;;;;;6.97;2.35;;;2.10;75.30;;;;;;5011220;28;20195;-67
2022/02/24 01:26:52;;;;;;;4.38;3.00;;;2.20;75.80;;;;;;5011100;28;20255;-67
2022/02/24 01:29:19;;;;;;;4.18;3.03;;;2.30;75.80;;;;;;5011036;28;20196;-66
2022/02/24 01:31:47;;;;;;;5.65;2.50;;;2.30;76.00;;;;;;5010866;28;20285;-66
2022/02/24 01:34:14;;;;;;;3.78;2.22;;;2.30;76.50;;;;;;5010959;28;20254;-66
2022/02/24 01:36:41;;;;;;;5.05;3.35;;;2.30;76.70;;;;;;5010989;28;20207;-67
2022/02/24 01:39:08;;;;;;;5.75;3.13;;;2.40;76.70;;;;;;5010807;28;20230;-67
2022/02/24 01:41:35;;;;;;;6.07;3.22;;;2.40;76.30;;;;;;5010291;28;20646;-68
2022/02/24 01:44:09;;;;;;;4.95;3.38;;;2.40;76.00;;;;;;5010941;28;20529;-67
2022/02/24 01:46:36;;;;;;;5.22;3.60;;;2.40;75.50;;;;;;5010828;28;20187;-67
2022/02/24 01:49:05;;;;;;;4.22;3.05;;;2.40;75.20;;;;;;5010846;28;20558;-67
2022/02/24 01:51:32;;;;;;;4.95;3.53;;;2.40;74.40;;;;;;5010972;28;20223;-67
2022/02/24 01:53:59;;;;;;;5.65;3.60;;;2.40;74.70;;;;;;5010697;28;20224;-67
2022/02/24 01:56:26;;;;;;;9.07;6.47;;;2.40;74.30;;;;;;5010684;28;20191;-67
2022/02/24 01:58:54;;;;;;;12.13;7.88;;;2.40;73.90;;;;;;5010871;28;20227;-66
2022/02/24 02:01:21;;;;;;;13.82;12.07;;;2.40;73.60;;;;;;5010611;28;20254;-67
2022/02/24 02:03:49;;;;;;;8.52;4.97;;;2.40;73.90;;;;;;5010399;28;20345;-67
2022/02/24 02:06:17;;;;;;;7.10;3.40;;;2.40;73.80;;;;;;5010545;28;20603;-66
2022/02/24 02:08:44;;;;;;;4.05;3.13;;;2.40;74.20;;;;;;5010374;28;20234;-66
2022/02/24 02:11:11;;;;;;;6.45;2.95;;;2.40;74.60;;;;;;5010405;28;20223;-66
2022/02/24 02:13:38;;;;;;;4.00;2.33;;;2.30;73.60;;;;;;5010175;28;20231;-67
2022/02/24 02:16:07;;;;;;;3.92;2.70;;;2.20;73.50;;;;;;5009960;28;20239;-67
2022/02/24 02:18:34;;;;;;;5.15;3.35;;;2.20;74.00;;;;;;5010310;28;20199;-67
2022/02/24 02:21:02;;;;;;;5.63;2.85;;;2.20;74.90;;;;;;5010334;28;20227;-67
2022/02/24 02:23:30;;;;;;;12.35;9.93;;;2.20;74.90;;;;;;5010671;28;20242;-67
2022/02/24 02:25:57;;;;;;;5.43;3.30;;;2.20;74.50;;;;;;5010668;28;20231;-67
2022/02/24 02:28:28;;;;;;;4.97;3.30;;;2.30;74.70;;;;;;5009947;28;20231;-67
2022/02/24 02:30:55;;;;;;;3.50;2.80;;;2.30;74.90;;;;;;5010653;28;20236;-67
2022/02/24 02:33:22;;;;;;;5.65;2.80;;;2.30;75.00;;;;;;5010266;28;20196;-67
2022/02/24 02:35:49;;;;;;;5.22;2.95;;;2.30;75.50;;;;;;5010732;28;20282;-66
2022/02/24 02:38:17;;;;;;;4.70;2.58;;;2.30;75.80;;;;;;5010864;28;20547;-66
2022/02/24 02:40:44;;;;;;;8.25;5.20;;;2.30;75.60;;;;;;5010307;28;20192;-67
2022/02/24 02:43:12;;;;;;;7.22;4.65;;;2.30;74.40;;;;;;5010386;28;20304;-67
2022/02/24 02:45:40;;;;;;;5.20;3.75;;;2.30;74.10;;;;;;5010109;28;20191;-67
2022/02/24 02:48:07;;;;;;;6.20;3.80;;;2.20;74.40;;;;;;5010082;28;20199;-68
2022/02/24 02:50:34;;;;;;;4.38;3.35;;;2.30;74.70;;;;;;5010282;28;20188;-67
2022/02/24 02:53:03;;;;;;;4.15;2.47;;;2.30;74.70;;;;;;5011517;28;20246;-67
2022/02/24 02:55:31;;;;;;;6.93;2.90;;;2.20;74.50;;;;;;5013726;28;20552;-67
2022/02/24 02:57:58;;;;;;;5.20;2.33;;;2.30;74.00;;;;;;5013817;28;20191;-68
2022/02/24 03:00:25;;;;;;;4.22;2.45;;;2.20;71.80;;;;;;5013685;28;20280;-66
2022/02/24 03:02:52;;;;;;;5.53;2.85;;;2.00;72.30;;;;;;5013559;28;20223;-67
2022/02/24 03:05:20;;;;;;;4.93;3.20;;;2.00;73.00;;;;;;5013426;28;20603;-67
2022/02/24 03:07:47;;;;;;;3.85;2.83;;;1.90;72.50;;;;;;5013199;28;20483;-69
2022/02/24 03:10:14;;;;;;;4.15;2.60;;;1.90;72.40;;;;;;5013321;28;20307;-67
2022/02/24 03:12:43;;;;;;;4.25;2.50;;;1.80;72.20;;;;;;5013117;28;20194;-67
2022/02/24 03:15:13;;;;;;;3.10;2.45;;;1.80;73.40;;;;;;5013324;28;20317;-67
2022/02/24 03:17:41;;;;;;;6.05;3.72;;;1.80;74.00;;;;;;5013132;28;20199;-67
2022/02/24 03:20:09;;;;;;;3.42;2.65;;;1.80;74.70;;;;;;5013139;28;20661;-67
2022/02/24 03:22:36;;;;;;;5.90;2.10;;;1.80;75.10;;;;;;5013092;28;20192;-67
2022/02/24 03:25:04;;;;;;;7.85;3.50;;;1.90;76.20;;;;;;5013194;28;20289;-67
2022/02/24 03:27:32;;;;;;;3.65;2.83;;;1.90;75.20;;;;;;5012853;28;20223;-67
2022/02/24 03:30:00;;;;;;;25.63;14.80;;;1.90;75.40;;;;;;5013010;28;20654;-67
2022/02/24 03:32:27;;;;;;;5.60;3.00;;;1.90;75.90;;;;;;5013386;28;20191;-66
2022/02/24 03:34:54;;;;;;;4.65;2.50;;;1.90;76.40;;;;;;5013023;28;20289;-67
2022/02/24 03:37:21;;;;;;;4.10;3.15;;;1.90;76.40;;;;;;5012931;28;20235;-67
2022/02/24 03:39:48;;;;;;;5.20;3.38;;;2.00;76.90;;;;;;5012820;28;20254;-67
2022/02/24 03:42:15;;;;;;;6.22;3.05;;;2.00;76.90;;;;;;5012929;28;20184;-67
2022/02/24 03:44:42;;;;;;;9.25;5.30;;;2.00;76.80;;;;;;5013061;28;20247;-67
2022/02/24 03:47:11;;;;;;;7.00;3.40;;;1.90;75.30;;;;;;5012739;28;20227;-67
2022/02/24 03:49:37;;;;;;;9.57;6.25;;;1.80;75.20;;;;;;5012360;28;20589;-67
2022/02/24 03:52:05;;;;;;;5.38;2.45;;;1.90;75.70;;;;;;5012752;28;20192;-67
2022/02/24 03:54:32;;;;;;;6.18;3.38;;;1.90;76.00;;;;;;5012127;28;20219;-67
2022/02/24 03:56:59;;;;;;;5.32;3.40;;;1.80;75.70;;;;;;5012176;28;20242;-67
2022/02/24 03:59:26;;;;;;;5.60;3.75;;;1.90;77.10;;;;;;5012591;28;20231;-67
2022/02/24 04:01:53;;;;;;;3.67;2.65;;;1.90;76.60;;;;;;5012656;28;20714;-67
2022/02/24 04:04:21;;;;;;;4.00;3.10;;;1.90;76.30;;;;;;5012263;28;20239;-66
2022/02/24 04:06:48;;;;;;;6.60;3.88;;;1.80;76.60;;;;;;5012612;28;20226;-67
2022/02/24 04:09:15;;;;;;;5.20;3.45;;;1.80;76.10;;;;;;5012223;28;20227;-67
2022/02/24 04:11:42;;;;;;;6.60;5.18;;;1.80;75.90;;;;;;5012305;28;20234;-67
2022/02/24 04:14:09;;;;;;;4.35;3.80;;;1.80;75.40;;;;;;5011975;28;20748;-67
2022/02/24 04:16:36;;;;;;;6.13;4.55;;;1.70;75.50;;;;;;5012433;28;20261;-73
2022/02/24 04:19:03;;;;;;;5.30;3.63;;;1.70;75.80;;;;;;5012394;28;20713;-68
2022/02/24 04:21:31;;;;;;;4.85;2.90;;;1.70;76.30;;;;;;5012404;28;20279;-67
2022/02/24 04:23:58;;;;;;;4.28;3.05;;;1.80;76.40;;;;;;5012510;28;20327;-67
2022/02/24 04:26:25;;;;;;;4.63;3.10;;;1.80;76.30;;;;;;5012341;28;20191;-67
2022/02/24 04:28:52;;;;;;;4.03;1.98;;;1.80;75.80;;;;;;5012103;28;20970;-69
2022/02/24 04:31:19;;;;;;;4.55;2.80;;;1.60;73.20;;;;;;5012300;28;20227;-67
2022/02/24 04:33:45;;;;;;;5.95;2.50;;;1.50;71.00;;;;;;5012134;28;20310;-67
2022/02/24 04:36:12;;;;;;;4.43;3.22;;;1.40;70.70;;;;;;5011708;28;20684;-67
2022/02/24 04:38:41;;;;;;;8.75;2.75;;;1.30;71.30;;;;;;5012053;28;20265;-67
2022/02/24 04:41:08;;;;;;;4.53;2.50;;;1.20;72.40;;;;;;5011944;28;20278;-67
2022/02/24 04:43:35;;;;;;;4.50;3.10;;;1.20;72.80;;;;;;5011824;28;20196;-66
2022/02/24 04:46:02;;;;;;;4.03;2.63;;;1.10;73.10;;;;;;5011673;28;20615;-66
2022/02/24 04:48:30;;;;;;;5.20;3.03;;;1.10;74.30;;;;;;5011569;28;20241;-67
2022/02/24 04:50:57;;;;;;;8.68;6.35;;;1.10;75.20;;;;;;5011844;28;20231;-67
2022/02/24 04:53:24;;;;;;;5.90;4.55;;;1.20;75.50;;;;;;5011356;28;20195;-67
2022/02/24 04:55:53;;;;;;;7.50;5.13;;;1.10;75.60;;;;;;5011344;28;20629;-67
2022/02/24 04:58:20;;;;;;;9.27;4.65;;;1.10;76.40;;;;;;5011019;28;20223;-66
2022/02/24 05:00:48;;;;;;;5.75;4.25;;;1.10;76.40;;;;;;5011176;28;20278;-66
2022/02/24 05:03:15;;;;;;;9.30;4.20;;;1.10;76.30;;;;;;5011685;28;20207;-67
2022/02/24 05:05:42;;;;;;;5.00;4.00;;;1.10;76.40;;;;;;5011347;28;20246;-67
2022/02/24 05:08:09;;;;;;;5.82;3.67;;;1.00;76.60;;;;;;5011552;28;20200;-67
2022/02/24 05:10:37;;;;;;;6.47;3.38;;;1.00;77.50;;;;;;5011391;28;20191;-67
2022/02/24 05:13:05;;;;;;;4.57;2.92;;;1.00;78.10;;;;;;5011119;28;20258;-67
2022/02/24 05:15:32;;;;;;;3.80;2.80;;;1.10;78.10;;;;;;5010274;28;20662;-67
2022/02/24 05:17:59;;;;;;;4.45;2.92;;;1.10;78.00;;;;;;5011332;28;20304;-67
2022/02/24 05:20:26;;;;;;;3.95;2.70;;;1.20;77.90;;;;;;5011199;28;20198;-67
2022/02/24 05:22:53;;;;;;;3.30;2.50;;;1.30;77.80;;;;;;5011252;28;20195;-66
2022/02/24 05:25:19;;;;;;;4.10;2.80;;;1.30;78.10;;;;;;5011336;28;20227;-67
2022/02/24 05:27:47;;;;;;;5.15;2.40;;;1.30;77.80;;;;;;5010786;28;20293;-67
2022/02/24 05:30:16;;;;;;;4.70;2.85;;;1.30;77.30;;;;;;5010823;28;20223;-66
2022/02/24 05:32:44;;;;;;;6.57;3.50;;;1.20;76.90;;;;;;5011177;28;20235;-66
2022/02/24 05:35:16;;;;;;;2.78;2.05;;;1.10;76.90;;;;;;5010739;28;20219;-67
2022/02/24 05:37:43;;;;;;;8.80;2.40;;;1.20;77.50;;;;;;5011856;28;20196;-68
2022/02/24 05:40:10;;;;;;;3.35;2.33;;;1.20;78.40;;;;;;5011812;28;20220;-67
2022/02/24 05:42:37;;;;;;;3.38;1.85;;;1.20;78.90;;;;;;5011796;28;20228;-68
2022/02/24 05:45:08;;;;;;;11.20;6.13;;;1.30;78.90;;;;;;5010565;28;20242;-69
2022/02/24 05:47:36;;;;;;;7.00;3.88;;;1.30;78.20;;;;;;5019592;28;20187;-68
2022/02/24 05:50:07;;;;;;;6.00;3.97;;;1.40;77.90;;;;;;5024674;28;20275;-67
2022/02/24 05:52:35;;;;;;;11.57;4.28;;;1.40;77.10;;;;;;5011017;28;20238;-67
2022/02/24 05:55:02;;;;;;;4.15;3.17;;;1.40;77.00;;;;;;5012889;28;20250;-68
2022/02/24 05:57:29;;;;;;;7.45;4.25;;;1.40;76.80;;;;;;5027077;28;20317;-67
2022/02/24 05:59:57;;;;;;;5.80;3.55;;;1.40;76.70;;;;;;5028152;28;20202;-67
2022/02/24 06:02:24;;;;;;;7.15;4.07;;;1.40;76.40;;;;;;5029150;28;20194;-67
2022/02/24 06:04:53;;;;;;;5.75;3.30;;;1.40;76.40;;;;;;5028971;28;20648;-70
2022/02/24 06:07:20;;;;;;;7.68;5.30;;;1.40;76.20;;;;;;5025360;28;20198;-67
2022/02/24 06:09:47;;;;;;;7.20;4.93;;;1.40;76.10;;;;;;5028531;28;20195;-67
2022/02/24 06:12:14;;;;;;;5.45;3.92;;;1.50;75.90;;;;;;5029786;28;20192;-68
2022/02/24 06:14:41;;;;;;;7.88;4.05;;;1.50;76.10;;;;;;5026964;28;22108;-68
2022/02/24 06:17:08;;;;;;;5.50;2.88;;;1.50;75.90;;;;;;5025710;28;20249;-68
2022/02/24 06:19:34;;;;;;;5.20;3.45;;;1.50;76.10;;;;;;5028761;28;20609;-67
2022/02/24 06:22:03;;;;;;;5.68;3.50;;;1.50;76.10;;;;;;5028616;28;20215;-67
2022/02/24 06:24:30;;;;;;;5.47;3.53;;;1.50;75.80;;;;;;5029086;28;20199;-68
2022/02/24 06:26:57;;;;;;;5.72;3.40;;;1.60;75.70;;;;;;5030226;28;20222;-68
2022/02/24 06:29:23;;;;;;;6.18;3.03;;;1.70;76.60;;;;;;5033275;28;20661;-67
2022/02/24 06:31:50;;;;;;;10.35;2.67;;;1.80;75.70;;;;;;5031879;28;20199;-71
2022/02/24 06:34:17;;;;;;;6.45;3.05;;;1.80;75.30;;;;;;5032895;28;20190;-67
2022/02/24 06:36:44;;;;;;;8.57;4.50;;;1.90;75.30;;;;;;5033337;28;20261;-67
2022/02/24 06:39:12;;;;;;;6.30;3.92;;;1.90;74.70;;;;;;5031622;28;20253;-67
2022/02/24 06:41:39;;;;;;;4.97;3.40;;;2.00;75.00;;;;;;5027476;28;20187;-67
2022/02/24 06:44:06;;;;;;;11.77;3.25;;;2.00;74.30;;;;;;5032394;28;20245;-69
2022/02/24 06:46:33;;;;;;;6.13;4.45;;;2.00;74.30;;;;;;5031793;28;20594;-68
2022/02/24 06:49:00;;;;;;;7.07;3.70;;;2.00;74.60;;;;;;5033052;28;20312;-68
2022/02/24 06:51:27;;;;;;;8.27;5.10;;;2.10;74.10;;;;;;5028203;28;20187;-67
2022/02/24 06:53:54;;;;;;;8.77;5.95;;;2.30;74.90;;;;;;5032521;28;20223;-68
2022/02/24 06:56:23;;;;;;;7.53;5.30;;;2.50;74.60;;;;;;5027494;28;20250;-67
2022/02/24 06:58:50;;;;;;;8.88;4.90;;;2.60;73.00;;;;;;5032562;28;20195;-68
2022/02/24 07:01:17;;;;;;;12.05;6.72;;;2.80;73.00;;;;;;5025886;28;20603;-69
2022/02/24 07:03:44;;;;;;;10.18;7.13;;;2.90;72.30;;;;;;5032403;28;20230;-68
2022/02/24 07:06:11;;;;;;;7.30;6.18;;;3.20;72.80;;;;;;5033695;28;20246;-68
2022/02/24 07:08:39;;;;;;;9.38;7.22;;;3.50;72.20;;;;;;5033774;28;20227;-68
2022/02/24 07:11:06;;;;;;;24.98;18.45;;;3.80;71.70;;;;;;5028435;28;20191;-68
2022/02/24 07:13:34;;;;;;;13.82;11.02;;;;;;;;;;5029961;28;20223;-68
2022/02/24 07:16:01;;;;;;;8.80;6.97;;;4.30;71.30;;;;;;5032095;28;20246;-68
2022/02/24 07:18:28;;;;;;;7.45;5.30;;;5.40;69.80;;;;;;5031832;28;20234;-68
2022/02/24 07:20:55;;;;;;;73.80;57.88;;;5.90;66.40;;;;;;5027556;28;20191;-69
2022/02/24 07:23:24;;;;;;;9.52;7.10;;;6.20;65.60;;;;;;5022117;28;20270;-73
2022/02/24 07:25:53;;;;;;;11.63;9.15;;;6.50;63.30;;;;;;5018445;28;20196;-70
2022/02/24 07:28:20;;;;;;;4.88;3.63;;;6.80;63.30;;;;;;5029042;28;20325;-68
2022/02/24 07:30:49;;;;;;;18.67;12.45;;;7.10;60.60;;;;;;5023768;28;20219;-68
2022/02/24 07:33:16;;;;;;;39.90;26.60;;;7.50;60.20;;;;;;5031929;28;20194;-68
2022/02/24 07:35:48;;;;;;;16.17;12.57;;;7.90;58.40;;;;;;5032702;28;20225;-68
2022/02/24 07:38:15;;;;;;;5.60;2.78;;;8.10;57.90;;;;;;5030185;28;20190;-68
2022/02/24 07:40:42;;;;;;;3.85;2.88;;;8.40;56.70;;;;;;5032074;28;20191;-70
2022/02/24 07:43:09;;;;;;;6.10;3.85;;;8.70;55.00;;;;;;5025656;28;20696;-69
2022/02/24 07:45:36;;;;;;;4.55;3.33;;;8.50;54.30;;;;;;5025785;28;21601;-68
2022/02/24 07:48:05;;;;;;;4.90;3.55;;;8.50;54.20;;;;;;5032429;28;20202;-68
2022/02/24 07:50:32;;;;;;;4.13;3.22;;;8.60;53.90;;;;;;5031230;28;20249;-68
2022/02/24 07:52:59;;;;;;;5.18;3.47;;;8.70;53.60;;;;;;5032198;28;20191;-68
2022/02/24 07:55:26;;;;;;;5.50;3.40;;;8.90;52.90;;;;;;5027674;28;20227;-68
2022/02/24 07:57:53;;;;;;;4.85;3.20;;;8.80;53.00;;;;;;5031125;28;20187;-68
2022/02/24 08:00:20;;;;;;;6.22;3.28;;;9.00;52.90;;;;;;5030998;28;20211;-68
2022/02/24 08:02:51;;;;;;;5.22;4.65;;;9.30;52.30;;;;;;5032326;28;20202;-68
2022/02/24 08:05:19;;;;;;;9.15;4.78;;;9.90;52.00;;;;;;5030303;28;20198;-68
2022/02/24 08:07:47;;;;;;;7.68;4.18;;;10.70;50.90;;;;;;5031772;28;20643;-68
2022/02/24 08:10:14;;;;;;;8.68;5.30;;;11.70;49.00;;;;;;5025556;28;20191;-68
2022/02/24 08:12:42;;;;;;;6.93;5.20;;;12.80;46.10;;;;;;5026317;28;20238;-70
2022/02/24 08:15:11;;;;;;;7.45;4.90;;;13.40;44.00;;;;;;5021839;28;20191;-68
2022/02/24 08:17:39;;;;;;;9.00;5.43;;;14.20;43.20;;;;;;5030785;28;20191;-69
2022/02/24 08:20:08;;;;;;;4.97;3.58;;;15.30;41.90;;;;;;5030502;28;20511;-68
2022/02/24 08:22:38;;;;;;;4.85;3.00;;;16.60;39.50;;;;;;5031701;28;20195;-69
2022/02/24 08:25:06;;;;;;;4.53;2.90;;;18.10;37.30;;;;;;5030490;28;20191;-69
2022/02/24 08:27:35;;;;;;;7.13;3.37;;;19.20;34.40;;;;;;5028115;28;20652;-69
2022/02/24 08:30:03;;;;;;;4.83;2.90;;;20.00;32.90;;;;;;5029866;28;20944;-70
2022/02/24 08:32:31;;;;;;;4.87;2.93;;;20.50;31.20;;;;;;5031442;28;20541;-70
2022/02/24 08:34:59;;;;;;;5.37;3.53;;;21.20;31.60;;;;;;5024940;28;20480;-69
2022/02/24 08:37:26;;;;;;;5.13;2.70;;;22.10;29.60;;;;;;5031412;28;20515;-69
2022/02/24 08:39:54;;;;;;;4.10;2.10;;;22.70;28.20;;;;;;5030627;28;20585;-69
2022/02/24 08:42:22;;;;;;;4.50;2.50;;;23.50;27.70;;;;;;5030094;28;20444;-70
2022/02/24 08:44:50;;;;;;;3.03;1.70;;;24.10;25.30;;;;;;5030287;28;20937;-69
2022/02/24 08:47:18;;;;;;;3.10;2.10;;;24.50;25.90;;;;;;5031541;28;20504;-69
2022/02/24 08:49:45;;;;;;;4.13;1.80;;;25.30;23.90;;;;;;5030252;28;20535;-69
2022/02/24 08:52:12;;;;;;;5.53;2.97;;;26.10;23.60;;;;;;5029148;28;20929;-70
2022/02/24 08:54:39;;;;;;;3.90;1.70;;;27.30;22.10;;;;;;5030918;28;20442;-69
2022/02/24 08:57:08;;;;;;;6.80;2.87;;;28.10;21.50;;;;;;5029997;28;20865;-70
2022/02/24 08:59:36;;;;;;;4.73;2.57;;;28.70;21.00;;;;;;5026486;28;20473;-69
2022/02/24 09:02:04;;;;;;;2.97;1.90;;;29.10;19.70;;;;;;5030263;28;20461;-69
2022/02/24 09:04:31;;;;;;;3.33;2.10;;;29.00;20.10;;;;;;5031309;28;20905;-69
2022/02/24 09:06:58;;;;;;;4.00;2.30;;;29.30;20.70;;;;;;5030457;28;20781;-69
2022/02/24 09:09:25;;;;;;;5.23;3.33;;;29.90;20.10;;;;;;5030805;28;20446;-70
2022/02/24 09:11:52;;;;;;;6.30;3.10;;;30.60;19.50;;;;;;5030346;28;21005;-69
2022/02/24 09:14:21;;;;;;;8.33;4.00;;;31.50;19.30;;;;;;5031179;28;20849;-70
2022/02/24 09:16:48;;;;;;;6.43;4.33;;;32.20;17.80;;;;;;5025770;28;20484;-66
2022/02/24 09:19:15;;;;;;;6.47;4.50;;;33.00;17.50;;;;;;5030823;28;20723;-69
2022/02/24 09:21:42;;;;;;;5.93;4.43;;;34.10;17.40;;;;;;5026752;28;20443;-68
2022/02/24 09:24:09;;;;;;;5.80;4.50;;;34.50;15.50;;;;;;5031006;28;20437;-68
2022/02/24 09:26:37;;;;;;;2.80;1.87;;;34.60;14.90;;;;;;5029922;28;20504;-68
2022/02/24 09:29:05;;;;;;;4.50;2.60;;;34.40;13.80;;;;;;5030802;28;20514;-69
2022/02/24 09:31:35;;;;;;;4.80;2.47;;;34.70;14.60;;;;;;5025127;28;20797;-68
2022/02/24 09:34:02;;;;;;;5.90;2.97;;;35.00;14.10;;;;;;5030659;28;20455;-68
2022/02/24 09:36:29;;;;;;;5.50;3.13;;;35.10;12.90;;;;;;5030018;28;20437;-68
2022/02/24 09:38:56;;;;;;;6.23;3.30;;;35.70;14.50;;;;;;5030589;28;20444;-68
2022/02/24 09:41:25;;;;;;;4.80;2.10;;;36.70;13.80;;;;;;5026144;28;20548;-68
2022/02/24 09:43:53;;;;;;;2.60;1.67;;;37.70;12.30;;;;;;5030614;28;20457;-68
2022/02/24 09:46:20;;;;;;;3.57;2.23;;;37.70;11.50;;;;;;5025266;28;20511;-68
2022/02/24 09:48:48;;;;;;;3.43;2.00;;;37.40;12.00;;;;;;5026878;28;20441;-69
2022/02/24 09:51:18;;;;;;;6.33;5.47;;;37.00;11.40;;;;;;5030156;28;20442;-68
2022/02/24 09:53:47;;;;;;;6.47;2.40;;;36.10;10.80;;;;;;5029916;28;20437;-68
2022/02/24 09:56:17;;;;;;;2.50;1.70;;;35.50;12.40;;;;;;5029115;28;20438;-69
2022/02/24 09:58:45;;;;;;;5.70;1.57;;;35.00;12.60;;;;;;5030528;28;20434;-68
2022/02/24 10:01:14;;;;;;;4.13;1.83;;;34.20;11.90;;;;;;5029959;28;20438;-68
2022/02/24 10:03:45;;;;;;;5.33;2.70;;;33.40;13.30;;;;;;5033158;28;20441;-70
2022/02/24 10:06:15;;;;;;;3.53;2.10;;;32.80;13.40;;;;;;5026410;28;20465;-69
2022/02/24 10:08:44;;;;;;;3.20;2.10;;;32.60;14.60;;;;;;5033842;28;20441;-68
2022/02/24 10:11:20;;;;;;;2.50;1.77;;;33.00;14.50;;;;;;5034032;28;20970;-68
2022/02/24 10:14:00;;;;;;;2.57;1.27;;;33.30;15.00;;;;;;5029332;28;20483;-68
2022/02/24 10:16:28;;;;;;;2.80;1.93;;;33.30;13.60;;;;;;5032883;28;20525;-68
2022/02/24 10:18:55;;;;;;;3.33;1.50;;;32.90;13.90;;;;;;5033449;28;20445;-68
2022/02/24 10:21:26;;;;;;;2.97;1.57;;;32.60;13.30;;;;;;5033077;28;20449;-68
2022/02/24 10:23:53;;;;;;;4.23;2.07;;;32.70;15.60;;;;;;5034063;28;20441;-68
2022/02/24 10:26:21;;;;;;;2.73;1.53;;;33.50;13.20;;;;;;5030496;28;20576;-69
2022/02/24 10:28:50;;;;;;;3.00;1.60;;;33.30;13.30;;;;;;5033904;28;20453;-68
2022/02/24 10:31:19;;;;;;;4.53;2.80;;;33.70;13.90;;;;;;5030128;28;20450;-68
2022/02/24 10:33:48;;;;;;;4.10;3.10;;;34.80;14.10;;;;;;5033884;28;20469;-68
2022/02/24 10:36:21;;;;;;;5.70;4.67;;;36.50;12.80;;;;;;5032400;28;20487;-71
2022/02/24 10:39:06;;;;;;;2.53;1.20;;;38.10;12.40;;;;;;5032731;28;20465;-69
2022/02/24 10:41:35;;;;;;;3.90;1.53;;;39.80;10.90;;;;;;5031822;28;20515;-69
2022/02/24 10:44:13;;;;;;;2.17;1.03;;;41.10;10.50;;;;;;5030153;28;20435;-76
2022/02/24 10:46:41;;;;;;;2.77;1.20;;;42.00;10.30;;;;;;5029907;28;20489;-69
2022/02/24 10:49:08;;;;;;;2.30;1.00;;;42.40;9.30;;;;;;5032843;28;20445;-69
2022/02/24 10:51:36;;;;;;;2.00;1.00;;;42.80;9.50;;;;;;5033449;28;20450;-69
2022/02/24 10:54:07;;;;;;;3.10;1.63;;;42.80;8.50;;;;;;5032034;28;20783;-72
2022/02/24 10:56:35;;;;;;;3.10;1.60;;;42.80;8.70;;;;;;5030987;28;21425;-69
2022/02/24 10:59:03;;;;;;;4.50;1.30;;;42.90;8.30;;;;;;5026263;28;20445;-70
2022/02/24 11:01:30;;;;;;;2.10;1.10;;;42.60;8.60;;;;;;5033073;28;20433;-69
2022/02/24 11:03:59;;;;;;;5.93;1.27;;;42.70;8.60;;;;;;5031802;28;20477;-71
2022/02/24 11:06:27;;;;;;;2.17;0.90;;;42.60;8.00;;;;;;5032859;28;20523;-69
2022/02/24 11:08:57;;;;;;;2.20;1.07;;;42.10;8.40;;;;;;5031704;28;20461;-69
2022/02/24 11:11:28;;;;;;;3.57;1.60;;;41.50;7.50;;;;;;5029435;28;20439;-69
2022/02/24 11:13:57;;;;;;;2.93;1.30;;;41.00;7.80;;;;;;5024661;28;20458;-70
2022/02/24 11:16:25;;;;;;;2.73;1.80;;;40.50;6.60;;;;;;5027190;28;20449;-68
2022/02/24 11:18:53;;;;;;;4.40;1.70;;;40.40;7.30;;;;;;5032092;28;20434;-69
2022/02/24 11:21:22;;;;;;;3.00;1.00;;;40.20;8.30;;;;;;5032215;28;20437;-69
2022/02/24 11:23:50;;;;;;;2.27;0.90;;;39.90;7.30;;;;;;5033188;28;20441;-68
2022/02/24 11:26:35;;;;;;;3.80;1.10;;;39.40;8.00;;;;;;5032277;28;20487;-69
2022/02/24 11:29:12;;;;;;;4.63;1.13;;;39.80;9.10;;;;;;5026491;28;21814;-69
2022/02/24 11:31:51;;;;;;;2.27;1.20;;;40.50;8.30;;;;;;5031738;28;20440;-69
2022/02/24 11:34:18;;;;;;;7.10;2.00;;;40.90;8.30;;;;;;5032087;28;20438;-69
2022/02/24 11:36:46;;;;;;;4.03;1.67;;;41.00;8.00;;;;;;5032956;28;20805;-70
2022/02/24 11:39:16;;;;;;;2.40;1.10;;;40.50;6.90;;;;;;5027729;28;20438;-69
2022/02/24 11:41:55;;;;;;;2.27;1.20;;;39.80;7.20;;;;;;5032807;28;20495;-69
2022/02/24 11:44:33;;;;;;;2.33;1.03;;;39.30;7.50;;;;;;5028855;28;20799;-69
2022/02/24 11:47:01;;;;;;;3.60;1.07;;;39.40;8.50;;;;;;5029207;28;20560;-70
2022/02/24 11:50:08;;;;;;;5.00;2.03;;;39.40;9.20;;;;;;5031397;28;20422;-69
2022/02/24 11:52:50;;;;;;;2.93;1.10;;;39.70;8.00;;;;;;4968706;28;20440;-69
2022/02/24 11:55:53;;;;;;;2.00;0.83;;;40.00;7.10;;;;;;4970661;28;20573;-69
2022/02/24 11:58:49;;;;;;;3.10;1.30;;;39.90;7.40;;;;;;5022774;28;20449;-69
2022/02/24 12:01:28;;;;;;;2.70;1.23;;;39.90;7.90;;;;;;5007884;28;20496;-69
2022/02/24 12:04:01;;;;;;;5.23;1.23;;;40.10;8.00;;;;;;5032235;28;20780;-70
2022/02/24 12:06:58;;;;;;;2.23;1.20;;;39.90;7.20;;;;;;5029579;28;20995;-69
2022/02/24 12:09:27;;;;;;;2.30;1.20;;;39.00;6.70;;;;;;5031835;28;20438;-69
2022/02/24 12:11:57;;;;;;;5.10;2.70;;;37.70;7.10;;;;;;5032162;28;20770;-70
2022/02/24 12:14:44;;;;;;;3.70;1.77;;;36.40;7.70;;;;;;5030226;28;20465;-69
2022/02/24 12:17:13;;;;;;;6.40;2.63;;;35.10;8.00;;;;;;5031239;28;20446;-69
2022/02/24 12:19:46;;;;;;;4.50;2.90;;;34.00;8.40;;;;;;5032356;28;20442;-68
2022/02/24 12:22:19;;;;;;;6.33;5.00;;;33.50;9.50;;;;;;5027434;28;20469;-69
2022/02/24 12:24:49;;;;;;;2.60;1.53;;;33.50;9.80;;;;;;5028094;28;20438;-69
2022/02/24 12:27:34;;;;;;;3.47;1.83;;;33.70;10.20;;;;;;5030901;28;20875;-69
2022/02/24 12:30:14;;;;;;;4.00;1.57;;;33.70;10.00;;;;;;5027956;28;20916;-69
2022/02/24 12:32:48;;;;;;;2.17;1.10;;;33.80;10.00;;;;;;5031291;28;20437;-69
2022/02/24 12:35:17;;;;;;;3.57;1.47;;;33.90;10.10;;;;;;5030997;28;20446;-69
2022/02/24 12:37:45;;;;;;;3.70;2.30;;;34.10;10.00;;;;;;5031794;28;20835;-68
2022/02/24 12:40:17;;;;;;;3.40;2.20;;;34.30;10.20;;;;;;5030467;28;20438;-69
2022/02/24 12:42:44;;;;;;;3.80;1.83;;;34.60;10.00;;;;;;5026105;28;20500;-69
2022/02/24 12:45:13;;;;;;;2.37;1.00;;;34.30;9.30;;;;;;5023652;28;20435;-69
2022/02/24 12:47:41;;;;;;;4.00;1.77;;;33.70;9.30;;;;;;5027121;28;20583;-69
2022/02/24 12:50:08;;;;;;;2.50;1.40;;;33.20;9.90;;;;;;5023150;28;20469;-76
2022/02/24 12:52:35;;;;;;;4.23;1.50;;;32.60;9.70;;;;;;5024778;28;20438;-69
2022/02/24 12:55:02;;;;;;;4.40;1.60;;;31.90;10.40;;;;;;5030148;28;20443;-68
2022/02/24 12:57:29;;;;;;;3.30;1.60;;;31.00;10.80;;;;;;5029722;28;20440;-70
2022/02/24 12:59:56;;;;;;;3.50;1.87;;;30.10;11.10;;;;;;5031039;28;20434;-68